sensor_id;sensor_type;location;lat;lon;timestamp;P1;durP1;ratioP1;P2;durP2;ratioP2
26690;SDS011;14307;51.718;8.938;2023-05-08T00:00:03;23.88;;;21.88;;
26690;SDS011;14307;51.718;8.938;2023-05-08T00:02:30;23.50;;;21.60;;
26690;SDS011;14307;51.718;8.938;2023-05-08T00:04:57;23.98;;;21.88;;
26690;SDS011;14307;51.718;8.938;2023-05-08T00:07:24;24.60;;;22.40;;
26690;SDS011;14307;51.718;8.938;2023-05-08T00:09:51;25.15;;;22.90;;
26690;SDS011;14307;51.718;8.938;2023-05-08T00:12:17;25.77;;;23.52;;
26690;SDS011;14307;51.718;8.938;2023-05-08T00:14:44;26.17;;;23.77;;
26690;SDS011;14307;51.718;8.938;2023-05-08T00:17:11;25.98;;;23.48;;
26690;SDS011;14307;51.718;8.938;2023-05-08T00:19:38;26.08;;;23.58;;
26690;SDS011;14307;51.718;8.938;2023-05-08T00:22:05;24.95;;;22.55;;
26690;SDS011;14307;51.718;8.938;2023-05-08T00:24:32;26.20;;;23.83;;
26690;SDS011;14307;51.718;8.938;2023-05-08T00:26:59;25.85;;;23.30;;
26690;SDS011;14307;51.718;8.938;2023-05-08T00:29:26;26.05;;;23.52;;
26690;SDS011;14307;51.718;8.938;2023-05-08T00:31:52;25.25;;;23.00;;
26690;SDS011;14307;51.718;8.938;2023-05-08T00:34:19;25.27;;;22.95;;
26690;SDS011;14307;51.718;8.938;2023-05-08T00:36:46;26.02;;;23.65;;
26690;SDS011;14307;51.718;8.938;2023-05-08T00:39:12;25.10;;;22.83;;
26690;SDS011;14307;51.718;8.938;2023-05-08T00:41:39;27.13;;;24.60;;
26690;SDS011;14307;51.718;8.938;2023-05-08T00:44:06;29.55;;;24.48;;
26690;SDS011;14307;51.718;8.938;2023-05-08T00:46:32;26.63;;;24.17;;
26690;SDS011;14307;51.718;8.938;2023-05-08T00:49:00;27.23;;;24.48;;
26690;SDS011;14307;51.718;8.938;2023-05-08T00:51:28;27.27;;;24.83;;
26690;SDS011;14307;51.718;8.938;2023-05-08T00:53:56;27.20;;;24.60;;
26690;SDS011;14307;51.718;8.938;2023-05-08T00:56:24;28.42;;;25.55;;
26690;SDS011;14307;51.718;8.938;2023-05-08T00:58:54;27.55;;;24.95;;
26690;SDS011;14307;51.718;8.938;2023-05-08T01:01:21;27.85;;;25.25;;
26690;SDS011;14307;51.718;8.938;2023-05-08T01:03:48;27.27;;;24.55;;
26690;SDS011;14307;51.718;8.938;2023-05-08T01:06:16;27.88;;;25.20;;
26690;SDS011;14307;51.718;8.938;2023-05-08T01:08:43;27.17;;;24.05;;
26690;SDS011;14307;51.718;8.938;2023-05-08T01:16:28;28.80;;;26.00;;
26690;SDS011;14307;51.718;8.938;2023-05-08T01:21:53;28.00;;;25.10;;
26690;SDS011;14307;51.718;8.938;2023-05-08T01:27:39;29.02;;;26.10;;
26690;SDS011;14307;51.718;8.938;2023-05-08T01:35:59;28.60;;;25.60;;
26690;SDS011;14307;51.718;8.938;2023-05-08T01:38:41;25.60;;;23.08;;
26690;SDS011;14307;51.718;8.938;2023-05-08T01:41:15;27.77;;;25.02;;
26690;SDS011;14307;51.718;8.938;2023-05-08T01:46:26;28.40;;;25.55;;
26690;SDS011;14307;51.718;8.938;2023-05-08T01:51:26;27.90;;;24.90;;
26690;SDS011;14307;51.718;8.938;2023-05-08T01:54:04;30.75;;;26.85;;
26690;SDS011;14307;51.718;8.938;2023-05-08T01:56:35;31.70;;;26.98;;
26690;SDS011;14307;51.718;8.938;2023-05-08T01:59:04;30.00;;;26.88;;
26690;SDS011;14307;51.718;8.938;2023-05-08T02:01:32;29.92;;;26.35;;
26690;SDS011;14307;51.718;8.938;2023-05-08T02:03:59;29.50;;;26.35;;
26690;SDS011;14307;51.718;8.938;2023-05-08T02:06:28;29.00;;;26.15;;
26690;SDS011;14307;51.718;8.938;2023-05-08T02:08:57;29.80;;;26.73;;
26690;SDS011;14307;51.718;8.938;2023-05-08T02:11:27;28.88;;;25.85;;
26690;SDS011;14307;51.718;8.938;2023-05-08T02:13:56;30.85;;;26.75;;
26690;SDS011;14307;51.718;8.938;2023-05-08T02:16:26;29.27;;;26.15;;
26690;SDS011;14307;51.718;8.938;2023-05-08T02:18:55;30.40;;;26.98;;
26690;SDS011;14307;51.718;8.938;2023-05-08T02:21:25;31.05;;;27.75;;
26690;SDS011;14307;51.718;8.938;2023-05-08T02:23:53;33.05;;;25.27;;
26690;SDS011;14307;51.718;8.938;2023-05-08T02:26:21;30.75;;;26.30;;
26690;SDS011;14307;51.718;8.938;2023-05-08T02:28:52;28.73;;;25.40;;
26690;SDS011;14307;51.718;8.938;2023-05-08T02:31:21;32.17;;;27.23;;
26690;SDS011;14307;51.718;8.938;2023-05-08T02:33:49;30.55;;;26.73;;
26690;SDS011;14307;51.718;8.938;2023-05-08T02:36:17;31.25;;;27.83;;
26690;SDS011;14307;51.718;8.938;2023-05-08T02:38:46;33.03;;;25.98;;
26690;SDS011;14307;51.718;8.938;2023-05-08T02:41:18;32.08;;;26.30;;
26690;SDS011;14307;51.718;8.938;2023-05-08T02:43:50;32.63;;;26.98;;
26690;SDS011;14307;51.718;8.938;2023-05-08T02:46:19;33.55;;;26.55;;
26690;SDS011;14307;51.718;8.938;2023-05-08T02:48:58;33.60;;;26.45;;
26690;SDS011;14307;51.718;8.938;2023-05-08T02:51:52;31.02;;;26.27;;
26690;SDS011;14307;51.718;8.938;2023-05-08T02:54:41;30.25;;;26.95;;
26690;SDS011;14307;51.718;8.938;2023-05-08T02:57:32;32.10;;;26.33;;
26690;SDS011;14307;51.718;8.938;2023-05-08T03:03:24;31.55;;;26.73;;
26690;SDS011;14307;51.718;8.938;2023-05-08T03:05:58;31.95;;;26.77;;
26690;SDS011;14307;51.718;8.938;2023-05-08T03:08:28;35.92;;;26.77;;
26690;SDS011;14307;51.718;8.938;2023-05-08T03:10:58;33.85;;;25.75;;
26690;SDS011;14307;51.718;8.938;2023-05-08T03:13:30;31.38;;;26.33;;
26690;SDS011;14307;51.718;8.938;2023-05-08T03:15:59;33.15;;;26.23;;
26690;SDS011;14307;51.718;8.938;2023-05-08T03:18:35;38.17;;;28.25;;
26690;SDS011;14307;51.718;8.938;2023-05-08T03:21:07;33.13;;;27.90;;
26690;SDS011;14307;51.718;8.938;2023-05-08T03:23:37;32.13;;;25.25;;
26690;SDS011;14307;51.718;8.938;2023-05-08T03:26:06;33.35;;;27.30;;
26690;SDS011;14307;51.718;8.938;2023-05-08T03:28:34;32.95;;;26.60;;
26690;SDS011;14307;51.718;8.938;2023-05-08T03:31:01;34.63;;;28.52;;
26690;SDS011;14307;51.718;8.938;2023-05-08T03:33:31;37.40;;;27.80;;
26690;SDS011;14307;51.718;8.938;2023-05-08T03:35:58;34.17;;;28.75;;
26690;SDS011;14307;51.718;8.938;2023-05-08T03:38:25;45.35;;;28.20;;
26690;SDS011;14307;51.718;8.938;2023-05-08T03:40:52;33.90;;;27.15;;
26690;SDS011;14307;51.718;8.938;2023-05-08T03:43:19;36.10;;;28.88;;
26690;SDS011;14307;51.718;8.938;2023-05-08T03:45:47;37.10;;;28.75;;
26690;SDS011;14307;51.718;8.938;2023-05-08T03:48:15;35.42;;;27.88;;
26690;SDS011;14307;51.718;8.938;2023-05-08T03:50:44;33.38;;;25.17;;
26690;SDS011;14307;51.718;8.938;2023-05-08T03:53:11;32.83;;;26.75;;
26690;SDS011;14307;51.718;8.938;2023-05-08T03:55:39;35.67;;;27.30;;
26690;SDS011;14307;51.718;8.938;2023-05-08T04:00:58;35.95;;;28.40;;
26690;SDS011;14307;51.718;8.938;2023-05-08T04:06:36;36.30;;;28.05;;
26690;SDS011;14307;51.718;8.938;2023-05-08T04:12:02;33.03;;;27.67;;
26690;SDS011;14307;51.718;8.938;2023-05-08T04:15:00;40.50;;;29.67;;
26690;SDS011;14307;51.718;8.938;2023-05-08T04:17:44;34.53;;;29.20;;
26690;SDS011;14307;51.718;8.938;2023-05-08T04:20:34;36.38;;;28.15;;
26690;SDS011;14307;51.718;8.938;2023-05-08T04:23:05;34.42;;;28.55;;
26690;SDS011;14307;51.718;8.938;2023-05-08T04:25:35;35.05;;;28.38;;
26690;SDS011;14307;51.718;8.938;2023-05-08T04:28:04;34.65;;;29.33;;
26690;SDS011;14307;51.718;8.938;2023-05-08T04:30:32;33.92;;;29.30;;
26690;SDS011;14307;51.718;8.938;2023-05-08T04:32:59;38.72;;;30.08;;
26690;SDS011;14307;51.718;8.938;2023-05-08T04:35:29;34.95;;;30.02;;
26690;SDS011;14307;51.718;8.938;2023-05-08T04:37:58;34.65;;;28.75;;
26690;SDS011;14307;51.718;8.938;2023-05-08T04:40:25;33.97;;;27.70;;
26690;SDS011;14307;51.718;8.938;2023-05-08T04:42:52;36.10;;;30.42;;
26690;SDS011;14307;51.718;8.938;2023-05-08T04:45:20;35.88;;;29.50;;
26690;SDS011;14307;51.718;8.938;2023-05-08T04:47:47;35.22;;;29.38;;
26690;SDS011;14307;51.718;8.938;2023-05-08T04:50:14;32.38;;;28.90;;
26690;SDS011;14307;51.718;8.938;2023-05-08T04:52:41;33.97;;;30.23;;
26690;SDS011;14307;51.718;8.938;2023-05-08T04:55:08;33.92;;;28.30;;
26690;SDS011;14307;51.718;8.938;2023-05-08T04:57:37;34.83;;;30.20;;
26690;SDS011;14307;51.718;8.938;2023-05-08T05:00:04;33.00;;;29.58;;
26690;SDS011;14307;51.718;8.938;2023-05-08T05:02:35;34.33;;;30.13;;
26690;SDS011;14307;51.718;8.938;2023-05-08T05:05:03;32.10;;;28.80;;
26690;SDS011;14307;51.718;8.938;2023-05-08T05:07:31;34.20;;;29.42;;
26690;SDS011;14307;51.718;8.938;2023-05-08T05:09:58;37.85;;;30.95;;
26690;SDS011;14307;51.718;8.938;2023-05-08T05:12:26;33.45;;;29.63;;
26690;SDS011;14307;51.718;8.938;2023-05-08T05:14:53;34.65;;;31.20;;
26690;SDS011;14307;51.718;8.938;2023-05-08T05:17:19;36.65;;;32.17;;
26690;SDS011;14307;51.718;8.938;2023-05-08T05:19:46;35.85;;;31.85;;
26690;SDS011;14307;51.718;8.938;2023-05-08T05:22:13;34.13;;;30.60;;
26690;SDS011;14307;51.718;8.938;2023-05-08T05:24:40;34.45;;;30.55;;
26690;SDS011;14307;51.718;8.938;2023-05-08T05:27:07;34.40;;;30.70;;
26690;SDS011;14307;51.718;8.938;2023-05-08T05:29:34;33.55;;;30.02;;
26690;SDS011;14307;51.718;8.938;2023-05-08T05:32:01;36.20;;;32.25;;
26690;SDS011;14307;51.718;8.938;2023-05-08T05:34:28;35.42;;;31.65;;
26690;SDS011;14307;51.718;8.938;2023-05-08T05:36:55;35.95;;;32.13;;
26690;SDS011;14307;51.718;8.938;2023-05-08T05:39:22;39.72;;;32.72;;
26690;SDS011;14307;51.718;8.938;2023-05-08T05:41:48;36.38;;;32.22;;
26690;SDS011;14307;51.718;8.938;2023-05-08T05:44:15;35.75;;;31.85;;
26690;SDS011;14307;51.718;8.938;2023-05-08T05:46:42;32.85;;;29.38;;
26690;SDS011;14307;51.718;8.938;2023-05-08T05:49:10;37.03;;;32.35;;
26690;SDS011;14307;51.718;8.938;2023-05-08T05:51:37;35.22;;;31.20;;
26690;SDS011;14307;51.718;8.938;2023-05-08T05:54:04;36.78;;;31.77;;
26690;SDS011;14307;51.718;8.938;2023-05-08T05:56:31;37.13;;;31.73;;
26690;SDS011;14307;51.718;8.938;2023-05-08T05:58:57;34.97;;;31.27;;
26690;SDS011;14307;51.718;8.938;2023-05-08T06:01:25;33.58;;;29.98;;
26690;SDS011;14307;51.718;8.938;2023-05-08T06:03:54;34.95;;;31.40;;
26690;SDS011;14307;51.718;8.938;2023-05-08T06:06:21;35.40;;;31.90;;
26690;SDS011;14307;51.718;8.938;2023-05-08T06:08:48;35.47;;;31.73;;
26690;SDS011;14307;51.718;8.938;2023-05-08T06:11:15;36.65;;;33.03;;
26690;SDS011;14307;51.718;8.938;2023-05-08T06:13:42;36.53;;;33.30;;
26690;SDS011;14307;51.718;8.938;2023-05-08T06:16:10;36.80;;;33.20;;
26690;SDS011;14307;51.718;8.938;2023-05-08T06:18:37;38.17;;;34.40;;
26690;SDS011;14307;51.718;8.938;2023-05-08T06:21:04;37.80;;;34.22;;
26690;SDS011;14307;51.718;8.938;2023-05-08T06:23:30;37.63;;;34.33;;
26690;SDS011;14307;51.718;8.938;2023-05-08T06:25:57;38.63;;;34.92;;
26690;SDS011;14307;51.718;8.938;2023-05-08T06:28:24;37.55;;;33.95;;
26690;SDS011;14307;51.718;8.938;2023-05-08T06:30:51;35.45;;;32.22;;
26690;SDS011;14307;51.718;8.938;2023-05-08T06:33:18;38.05;;;34.55;;
26690;SDS011;14307;51.718;8.938;2023-05-08T06:35:45;37.20;;;33.83;;
26690;SDS011;14307;51.718;8.938;2023-05-08T06:38:13;37.95;;;34.75;;
26690;SDS011;14307;51.718;8.938;2023-05-08T06:40:40;39.00;;;35.47;;
26690;SDS011;14307;51.718;8.938;2023-05-08T06:43:10;38.80;;;35.50;;
26690;SDS011;14307;51.718;8.938;2023-05-08T06:45:38;39.88;;;36.58;;
26690;SDS011;14307;51.718;8.938;2023-05-08T06:48:05;41.13;;;37.58;;
26690;SDS011;14307;51.718;8.938;2023-05-08T06:50:32;40.60;;;37.03;;
26690;SDS011;14307;51.718;8.938;2023-05-08T06:52:59;41.40;;;37.80;;
26690;SDS011;14307;51.718;8.938;2023-05-08T06:55:25;39.80;;;36.28;;
26690;SDS011;14307;51.718;8.938;2023-05-08T06:57:52;40.17;;;37.03;;
26690;SDS011;14307;51.718;8.938;2023-05-08T07:00:19;41.85;;;38.22;;
26690;SDS011;14307;51.718;8.938;2023-05-08T07:02:46;39.08;;;35.88;;
26690;SDS011;14307;51.718;8.938;2023-05-08T07:05:12;41.70;;;38.17;;
26690;SDS011;14307;51.718;8.938;2023-05-08T07:07:40;41.65;;;38.38;;
26690;SDS011;14307;51.718;8.938;2023-05-08T07:10:07;41.38;;;37.92;;
26690;SDS011;14307;51.718;8.938;2023-05-08T07:12:35;41.67;;;38.40;;
26690;SDS011;14307;51.718;8.938;2023-05-08T07:15:01;42.10;;;38.90;;
26690;SDS011;14307;51.718;8.938;2023-05-08T07:17:49;40.45;;;37.15;;
26690;SDS011;14307;51.718;8.938;2023-05-08T07:20:16;42.22;;;38.88;;
26690;SDS011;14307;51.718;8.938;2023-05-08T07:22:42;42.50;;;39.15;;
26690;SDS011;14307;51.718;8.938;2023-05-08T07:25:09;41.47;;;38.08;;
26690;SDS011;14307;51.718;8.938;2023-05-08T07:27:36;40.83;;;37.55;;
26690;SDS011;14307;51.718;8.938;2023-05-08T07:30:03;40.35;;;37.30;;
26690;SDS011;14307;51.718;8.938;2023-05-08T07:32:30;41.38;;;38.10;;
26690;SDS011;14307;51.718;8.938;2023-05-08T07:34:57;40.72;;;37.63;;
26690;SDS011;14307;51.718;8.938;2023-05-08T07:37:24;41.67;;;38.60;;
26690;SDS011;14307;51.718;8.938;2023-05-08T07:39:50;40.78;;;37.83;;
26690;SDS011;14307;51.718;8.938;2023-05-08T07:42:17;39.60;;;36.47;;
26690;SDS011;14307;51.718;8.938;2023-05-08T07:44:44;40.38;;;37.28;;
26690;SDS011;14307;51.718;8.938;2023-05-08T07:47:20;41.75;;;38.45;;
26690;SDS011;14307;51.718;8.938;2023-05-08T07:49:47;39.75;;;36.70;;
26690;SDS011;14307;51.718;8.938;2023-05-08T07:52:14;41.40;;;38.30;;
26690;SDS011;14307;51.718;8.938;2023-05-08T07:54:41;42.45;;;39.28;;
26690;SDS011;14307;51.718;8.938;2023-05-08T07:57:08;42.20;;;39.13;;
26690;SDS011;14307;51.718;8.938;2023-05-08T07:59:35;41.42;;;38.30;;
26690;SDS011;14307;51.718;8.938;2023-05-08T08:02:02;42.75;;;39.50;;
26690;SDS011;14307;51.718;8.938;2023-05-08T08:04:28;41.17;;;38.10;;
26690;SDS011;14307;51.718;8.938;2023-05-08T08:06:55;40.60;;;37.60;;
26690;SDS011;14307;51.718;8.938;2023-05-08T08:09:22;42.90;;;39.80;;
26690;SDS011;14307;51.718;8.938;2023-05-08T08:11:49;42.08;;;38.97;;
26690;SDS011;14307;51.718;8.938;2023-05-08T08:14:15;41.42;;;38.33;;
26690;SDS011;14307;51.718;8.938;2023-05-08T08:16:42;40.70;;;38.00;;
26690;SDS011;14307;51.718;8.938;2023-05-08T08:19:09;42.10;;;38.88;;
26690;SDS011;14307;51.718;8.938;2023-05-08T08:21:40;43.22;;;40.22;;
26690;SDS011;14307;51.718;8.938;2023-05-08T08:24:08;42.78;;;39.80;;
26690;SDS011;14307;51.718;8.938;2023-05-08T08:26:35;42.70;;;39.70;;
26690;SDS011;14307;51.718;8.938;2023-05-08T08:29:02;42.78;;;39.80;;
26690;SDS011;14307;51.718;8.938;2023-05-08T08:31:30;41.72;;;39.00;;
26690;SDS011;14307;51.718;8.938;2023-05-08T08:33:56;42.65;;;39.88;;
26690;SDS011;14307;51.718;8.938;2023-05-08T08:36:23;41.95;;;39.00;;
26690;SDS011;14307;51.718;8.938;2023-05-08T08:38:50;42.80;;;39.78;;
26690;SDS011;14307;51.718;8.938;2023-05-08T08:41:17;42.05;;;39.05;;
26690;SDS011;14307;51.718;8.938;2023-05-08T08:43:44;41.90;;;39.03;;
26690;SDS011;14307;51.718;8.938;2023-05-08T08:46:11;41.25;;;38.42;;
26690;SDS011;14307;51.718;8.938;2023-05-08T08:48:42;41.63;;;38.80;;
26690;SDS011;14307;51.718;8.938;2023-05-08T08:54:08;44.78;;;41.78;;
26690;SDS011;14307;51.718;8.938;2023-05-08T08:56:38;45.33;;;42.15;;
26690;SDS011;14307;51.718;8.938;2023-05-08T08:59:08;46.95;;;43.33;;
26690;SDS011;14307;51.718;8.938;2023-05-08T09:01:37;44.15;;;41.25;;
26690;SDS011;14307;51.718;8.938;2023-05-08T09:04:05;45.00;;;41.83;;
26690;SDS011;14307;51.718;8.938;2023-05-08T09:06:36;44.83;;;41.63;;
26690;SDS011;14307;51.718;8.938;2023-05-08T09:09:03;45.88;;;42.65;;
26690;SDS011;14307;51.718;8.938;2023-05-08T09:11:30;43.28;;;40.15;;
26690;SDS011;14307;51.718;8.938;2023-05-08T09:13:57;44.78;;;41.58;;
26690;SDS011;14307;51.718;8.938;2023-05-08T09:16:24;45.00;;;41.78;;
26690;SDS011;14307;51.718;8.938;2023-05-08T09:18:53;46.55;;;43.28;;
26690;SDS011;14307;51.718;8.938;2023-05-08T09:21:20;44.85;;;41.75;;
26690;SDS011;14307;51.718;8.938;2023-05-08T09:23:56;44.40;;;41.22;;
26690;SDS011;14307;51.718;8.938;2023-05-08T09:26:39;44.35;;;41.50;;
26690;SDS011;14307;51.718;8.938;2023-05-08T09:31:38;44.40;;;41.30;;
26690;SDS011;14307;51.718;8.938;2023-05-08T09:34:32;46.70;;;43.45;;
26690;SDS011;14307;51.718;8.938;2023-05-08T09:39:32;45.72;;;42.50;;
26690;SDS011;14307;51.718;8.938;2023-05-08T09:42:00;46.13;;;43.03;;
26690;SDS011;14307;51.718;8.938;2023-05-08T09:47:11;49.17;;;45.78;;
26690;SDS011;14307;51.718;8.938;2023-05-08T09:52:27;51.08;;;47.40;;
26690;SDS011;14307;51.718;8.938;2023-05-08T09:54:59;49.85;;;46.13;;
26690;SDS011;14307;51.718;8.938;2023-05-08T09:57:27;46.83;;;43.72;;
26690;SDS011;14307;51.718;8.938;2023-05-08T10:00:05;48.22;;;44.88;;
26690;SDS011;14307;51.718;8.938;2023-05-08T10:02:36;47.97;;;44.60;;
26690;SDS011;14307;51.718;8.938;2023-05-08T10:07:55;48.22;;;44.97;;
26690;SDS011;14307;51.718;8.938;2023-05-08T10:10:26;48.78;;;45.33;;
26690;SDS011;14307;51.718;8.938;2023-05-08T10:12:54;50.25;;;46.70;;
26690;SDS011;14307;51.718;8.938;2023-05-08T10:15:23;46.45;;;43.15;;
26690;SDS011;14307;51.718;8.938;2023-05-08T10:20:24;47.80;;;44.83;;
26690;SDS011;14307;51.718;8.938;2023-05-08T10:22:55;49.72;;;46.45;;
26690;SDS011;14307;51.718;8.938;2023-05-08T10:25:23;51.05;;;47.63;;
26690;SDS011;14307;51.718;8.938;2023-05-08T10:27:54;47.50;;;44.45;;
26690;SDS011;14307;51.718;8.938;2023-05-08T10:30:30;46.33;;;43.42;;
26690;SDS011;14307;51.718;8.938;2023-05-08T10:33:02;46.25;;;43.17;;
26690;SDS011;14307;51.718;8.938;2023-05-08T10:35:35;45.45;;;42.35;;
26690;SDS011;14307;51.718;8.938;2023-05-08T10:38:02;47.60;;;44.50;;
26690;SDS011;14307;51.718;8.938;2023-05-08T10:40:29;46.47;;;43.58;;
26690;SDS011;14307;51.718;8.938;2023-05-08T10:42:56;46.85;;;43.83;;
26690;SDS011;14307;51.718;8.938;2023-05-08T10:45:24;46.50;;;43.30;;
26690;SDS011;14307;51.718;8.938;2023-05-08T10:53:14;46.03;;;43.20;;
26690;SDS011;14307;51.718;8.938;2023-05-08T10:55:54;47.13;;;44.10;;
26690;SDS011;14307;51.718;8.938;2023-05-08T10:58:30;46.92;;;43.83;;
26690;SDS011;14307;51.718;8.938;2023-05-08T11:03:25;46.50;;;43.33;;
26690;SDS011;14307;51.718;8.938;2023-05-08T11:05:58;43.47;;;40.67;;
26690;SDS011;14307;51.718;8.938;2023-05-08T11:08:26;47.70;;;44.30;;
26690;SDS011;14307;51.718;8.938;2023-05-08T11:16:17;45.85;;;42.83;;
26690;SDS011;14307;51.718;8.938;2023-05-08T11:19:19;46.85;;;43.65;;
26690;SDS011;14307;51.718;8.938;2023-05-08T11:24:36;47.47;;;44.53;;
26690;SDS011;14307;51.718;8.938;2023-05-08T11:27:04;46.92;;;43.83;;
26690;SDS011;14307;51.718;8.938;2023-05-08T11:29:32;46.97;;;43.95;;
26690;SDS011;14307;51.718;8.938;2023-05-08T11:31:59;46.70;;;43.70;;
26690;SDS011;14307;51.718;8.938;2023-05-08T11:37:21;45.30;;;41.95;;
26690;SDS011;14307;51.718;8.938;2023-05-08T11:39:49;44.58;;;41.58;;
26690;SDS011;14307;51.718;8.938;2023-05-08T11:42:37;46.42;;;43.42;;
26690;SDS011;14307;51.718;8.938;2023-05-08T11:45:07;46.92;;;43.58;;
26690;SDS011;14307;51.718;8.938;2023-05-08T11:47:36;45.65;;;42.63;;
26690;SDS011;14307;51.718;8.938;2023-05-08T11:50:06;45.83;;;42.92;;
26690;SDS011;14307;51.718;8.938;2023-05-08T11:52:35;45.88;;;42.63;;
26690;SDS011;14307;51.718;8.938;2023-05-08T11:55:06;45.00;;;41.70;;
26690;SDS011;14307;51.718;8.938;2023-05-08T11:57:34;44.47;;;41.25;;
26690;SDS011;14307;51.718;8.938;2023-05-08T12:02:37;43.85;;;40.95;;
26690;SDS011;14307;51.718;8.938;2023-05-08T12:05:08;47.38;;;44.17;;
26690;SDS011;14307;51.718;8.938;2023-05-08T12:07:45;46.67;;;43.65;;
26690;SDS011;14307;51.718;8.938;2023-05-08T12:10:13;45.38;;;42.38;;
26690;SDS011;14307;51.718;8.938;2023-05-08T12:12:42;45.10;;;41.97;;
26690;SDS011;14307;51.718;8.938;2023-05-08T12:15:12;45.78;;;42.58;;
26690;SDS011;14307;51.718;8.938;2023-05-08T12:17:40;46.70;;;43.30;;
26690;SDS011;14307;51.718;8.938;2023-05-08T12:20:15;45.97;;;42.95;;
26690;SDS011;14307;51.718;8.938;2023-05-08T12:22:50;46.47;;;43.08;;
26690;SDS011;14307;51.718;8.938;2023-05-08T12:25:18;46.28;;;42.75;;
26690;SDS011;14307;51.718;8.938;2023-05-08T12:27:46;46.90;;;43.78;;
26690;SDS011;14307;51.718;8.938;2023-05-08T12:30:13;49.65;;;46.25;;
26690;SDS011;14307;51.718;8.938;2023-05-08T12:32:42;47.28;;;44.10;;
26690;SDS011;14307;51.718;8.938;2023-05-08T12:35:09;47.75;;;44.65;;
26690;SDS011;14307;51.718;8.938;2023-05-08T12:37:37;46.50;;;43.30;;
26690;SDS011;14307;51.718;8.938;2023-05-08T12:40:05;45.78;;;42.67;;
26690;SDS011;14307;51.718;8.938;2023-05-08T12:42:51;44.88;;;41.72;;
26690;SDS011;14307;51.718;8.938;2023-05-08T12:45:22;46.38;;;43.25;;
26690;SDS011;14307;51.718;8.938;2023-05-08T12:47:51;45.97;;;42.88;;
26690;SDS011;14307;51.718;8.938;2023-05-08T12:50:19;46.25;;;42.95;;
26690;SDS011;14307;51.718;8.938;2023-05-08T12:52:47;46.72;;;43.42;;
26690;SDS011;14307;51.718;8.938;2023-05-08T12:55:23;44.85;;;41.78;;
26690;SDS011;14307;51.718;8.938;2023-05-08T12:58:01;46.30;;;43.38;;
26690;SDS011;14307;51.718;8.938;2023-05-08T13:00:47;45.53;;;42.47;;
26690;SDS011;14307;51.718;8.938;2023-05-08T13:03:25;46.97;;;43.83;;
26690;SDS011;14307;51.718;8.938;2023-05-08T13:05:54;47.28;;;43.97;;
26690;SDS011;14307;51.718;8.938;2023-05-08T13:08:56;48.40;;;45.15;;
26690;SDS011;14307;51.718;8.938;2023-05-08T13:11:27;44.88;;;42.08;;
26690;SDS011;14307;51.718;8.938;2023-05-08T13:13:55;47.53;;;44.33;;
26690;SDS011;14307;51.718;8.938;2023-05-08T13:16:22;46.20;;;43.17;;
26690;SDS011;14307;51.718;8.938;2023-05-08T13:18:49;45.40;;;42.60;;
26690;SDS011;14307;51.718;8.938;2023-05-08T13:21:16;46.95;;;43.95;;
26690;SDS011;14307;51.718;8.938;2023-05-08T13:23:42;46.30;;;43.50;;
26690;SDS011;14307;51.718;8.938;2023-05-08T13:26:09;47.60;;;44.65;;
26690;SDS011;14307;51.718;8.938;2023-05-08T13:28:36;49.30;;;46.17;;
26690;SDS011;14307;51.718;8.938;2023-05-08T13:31:02;47.88;;;44.97;;
26690;SDS011;14307;51.718;8.938;2023-05-08T13:33:29;47.05;;;44.03;;
26690;SDS011;14307;51.718;8.938;2023-05-08T13:35:56;47.58;;;44.58;;
26690;SDS011;14307;51.718;8.938;2023-05-08T13:38:23;48.13;;;45.08;;
26690;SDS011;14307;51.718;8.938;2023-05-08T13:40:50;47.80;;;44.85;;
26690;SDS011;14307;51.718;8.938;2023-05-08T13:43:17;46.63;;;43.47;;
26690;SDS011;14307;51.718;8.938;2023-05-08T13:45:43;45.22;;;42.47;;
26690;SDS011;14307;51.718;8.938;2023-05-08T13:48:10;47.15;;;44.25;;
26690;SDS011;14307;51.718;8.938;2023-05-08T13:50:37;46.88;;;43.42;;
26690;SDS011;14307;51.718;8.938;2023-05-08T13:53:03;48.75;;;45.45;;
26690;SDS011;14307;51.718;8.938;2023-05-08T13:55:31;48.85;;;45.55;;
26690;SDS011;14307;51.718;8.938;2023-05-08T13:57:57;49.88;;;46.50;;
26690;SDS011;14307;51.718;8.938;2023-05-08T14:00:24;45.45;;;42.65;;
26690;SDS011;14307;51.718;8.938;2023-05-08T14:02:53;45.03;;;42.33;;
26690;SDS011;14307;51.718;8.938;2023-05-08T14:05:20;44.15;;;41.45;;
26690;SDS011;14307;51.718;8.938;2023-05-08T14:07:47;42.55;;;39.90;;
26690;SDS011;14307;51.718;8.938;2023-05-08T14:10:13;42.10;;;39.38;;
26690;SDS011;14307;51.718;8.938;2023-05-08T14:12:42;43.47;;;40.67;;
26690;SDS011;14307;51.718;8.938;2023-05-08T14:15:08;42.25;;;39.53;;
26690;SDS011;14307;51.718;8.938;2023-05-08T14:17:37;41.38;;;38.70;;
26690;SDS011;14307;51.718;8.938;2023-05-08T14:20:03;43.75;;;40.85;;
26690;SDS011;14307;51.718;8.938;2023-05-08T14:22:31;45.63;;;42.55;;
26690;SDS011;14307;51.718;8.938;2023-05-08T14:24:58;44.47;;;41.78;;
26690;SDS011;14307;51.718;8.938;2023-05-08T14:27:25;44.60;;;41.80;;
26690;SDS011;14307;51.718;8.938;2023-05-08T14:29:51;38.08;;;35.30;;
26690;SDS011;14307;51.718;8.938;2023-05-08T14:32:19;44.88;;;41.78;;
26690;SDS011;14307;51.718;8.938;2023-05-08T14:34:45;41.85;;;39.25;;
26690;SDS011;14307;51.718;8.938;2023-05-08T14:37:12;45.67;;;42.47;;
26690;SDS011;14307;51.718;8.938;2023-05-08T14:39:39;44.30;;;41.20;;
26690;SDS011;14307;51.718;8.938;2023-05-08T14:42:05;43.15;;;40.38;;
26690;SDS011;14307;51.718;8.938;2023-05-08T14:44:48;42.80;;;39.92;;
26690;SDS011;14307;51.718;8.938;2023-05-08T14:47:15;40.58;;;37.75;;
26690;SDS011;14307;51.718;8.938;2023-05-08T14:49:42;41.92;;;39.13;;
26690;SDS011;14307;51.718;8.938;2023-05-08T14:52:09;41.78;;;39.28;;
26690;SDS011;14307;51.718;8.938;2023-05-08T14:54:35;40.58;;;37.95;;
26690;SDS011;14307;51.718;8.938;2023-05-08T14:57:02;41.35;;;38.65;;
26690;SDS011;14307;51.718;8.938;2023-05-08T14:59:29;44.10;;;41.17;;
26690;SDS011;14307;51.718;8.938;2023-05-08T15:01:56;44.90;;;42.20;;
26690;SDS011;14307;51.718;8.938;2023-05-08T15:04:22;42.40;;;39.58;;
26690;SDS011;14307;51.718;8.938;2023-05-08T15:06:49;43.88;;;41.25;;
26690;SDS011;14307;51.718;8.938;2023-05-08T15:09:16;46.00;;;43.05;;
26690;SDS011;14307;51.718;8.938;2023-05-08T15:11:43;42.25;;;39.75;;
26690;SDS011;14307;51.718;8.938;2023-05-08T15:14:09;39.17;;;36.50;;
26690;SDS011;14307;51.718;8.938;2023-05-08T15:16:36;37.60;;;34.90;;
26690;SDS011;14307;51.718;8.938;2023-05-08T15:19:03;37.90;;;35.40;;
26690;SDS011;14307;51.718;8.938;2023-05-08T15:21:33;42.38;;;39.70;;
26690;SDS011;14307;51.718;8.938;2023-05-08T15:23:59;44.28;;;41.50;;
26690;SDS011;14307;51.718;8.938;2023-05-08T15:26:27;48.00;;;45.13;;
26690;SDS011;14307;51.718;8.938;2023-05-08T15:28:53;47.83;;;45.05;;
26690;SDS011;14307;51.718;8.938;2023-05-08T15:31:20;46.85;;;44.05;;
26690;SDS011;14307;51.718;8.938;2023-05-08T15:33:47;42.83;;;40.22;;
26690;SDS011;14307;51.718;8.938;2023-05-08T15:36:14;45.70;;;42.80;;
26690;SDS011;14307;51.718;8.938;2023-05-08T15:38:41;47.45;;;44.70;;
26690;SDS011;14307;51.718;8.938;2023-05-08T15:41:08;48.13;;;45.33;;
26690;SDS011;14307;51.718;8.938;2023-05-08T15:43:40;49.33;;;46.42;;
26690;SDS011;14307;51.718;8.938;2023-05-08T15:46:07;43.67;;;41.13;;